createdAt,value
2022-08-19T00:01:37.990Z,18.44
2022-08-19T00:04:08.483Z,18.22
2022-08-19T00:06:37.038Z,18.23
2022-08-19T00:09:06.469Z,18.38
2022-08-19T00:11:33.493Z,18.41
2022-08-19T00:14:00.189Z,18.30
2022-08-19T00:16:27.167Z,18.25
2022-08-19T00:18:56.544Z,18.09
2022-08-19T00:21:25.191Z,18.35
2022-08-19T00:23:53.135Z,18.48
2022-08-19T00:26:20.121Z,18.53
2022-08-19T00:28:47.738Z,18.56
2022-08-19T00:31:14.715Z,18.60
2022-08-19T00:33:41.829Z,18.60
2022-08-19T00:36:10.513Z,18.61
2022-08-19T00:38:40.445Z,18.40
2022-08-19T00:41:07.445Z,18.51
2022-08-19T00:43:34.894Z,18.56
2022-08-19T00:46:05.801Z,18.59
2022-08-19T00:48:34.657Z,18.42
2022-08-19T00:51:02.451Z,18.53
2022-08-19T00:53:32.476Z,18.46
2022-08-19T00:56:02.202Z,18.52
2022-08-19T00:58:34.758Z,18.56
2022-08-19T01:01:03.740Z,18.58
2022-08-19T01:03:57.053Z,18.61
2022-08-19T01:06:20.054Z,18.60
2022-08-19T01:08:50.055Z,18.62
2022-08-19T01:11:17.876Z,18.62
2022-08-19T01:13:49.703Z,18.48
2022-08-19T01:16:18.834Z,18.39
2022-08-19T01:18:45.835Z,18.37
2022-08-19T01:21:23.007Z,18.50
2022-08-19T01:23:50.071Z,18.47
2022-08-19T01:26:20.879Z,18.25
2022-08-19T01:28:50.130Z,18.36
2022-08-19T01:31:26.864Z,18.34
2022-08-19T01:33:56.884Z,18.44
2022-08-19T01:36:31.342Z,18.49
2022-08-19T01:38:59.366Z,18.49
2022-08-19T01:41:26.577Z,18.49
2022-08-19T01:44:09.834Z,18.53
2022-08-19T01:46:41.228Z,18.42
2022-08-19T01:49:09.215Z,18.50
2022-08-19T01:51:39.743Z,18.54
2022-08-19T01:54:11.397Z,18.56
2022-08-19T01:56:39.705Z,18.57
2022-08-19T01:59:11.952Z,18.57
2022-08-19T02:01:38.926Z,18.58
2022-08-19T02:04:06.795Z,18.59
2022-08-19T02:06:34.313Z,18.59
2022-08-19T02:09:01.525Z,18.49
2022-08-19T02:11:32.697Z,18.54
2022-08-19T02:14:01.161Z,18.59
2022-08-19T02:16:28.352Z,18.35
2022-08-19T02:18:55.756Z,18.36
2022-08-19T02:21:24.716Z,18.48
2022-08-19T02:23:51.573Z,18.50
2022-08-19T02:26:19.763Z,18.49
2022-08-19T02:28:47.123Z,18.52
2022-08-19T02:31:19.016Z,18.54
2022-08-19T02:33:47.073Z,18.54
2022-08-19T02:36:15.630Z,18.57
2022-08-19T02:38:42.735Z,18.56
2022-08-19T02:41:20.547Z,18.57
2022-08-19T02:44:29.749Z,18.58
2022-08-19T02:46:35.403Z,18.58
2022-08-19T02:49:06.224Z,18.58
2022-08-19T02:51:37.964Z,18.57
2022-08-19T02:54:05.380Z,18.55
2022-08-19T02:56:32.543Z,18.58
2022-08-19T02:58:59.445Z,18.58
2022-08-19T03:01:32.830Z,18.50
2022-08-19T03:04:01.695Z,18.51
2022-08-19T03:06:29.394Z,18.48
2022-08-19T03:08:56.761Z,18.47
2022-08-19T03:11:28.456Z,18.50
2022-08-19T03:13:59.592Z,18.42
2022-08-19T03:16:28.767Z,18.50
2022-08-19T03:19:03.192Z,18.51
2022-08-19T03:21:32.937Z,18.51
2022-08-19T03:24:02.638Z,18.52
2022-08-19T03:26:30.700Z,18.46
2022-08-19T03:28:58.963Z,18.51
2022-08-19T03:31:45.514Z,18.51
2022-08-19T03:34:18.745Z,18.52
2022-08-19T03:36:47.136Z,18.53
2022-08-19T03:39:14.815Z,18.52
2022-08-19T03:41:45.099Z,18.41
2022-08-19T03:44:18.521Z,18.20
2022-08-19T03:46:47.881Z,18.39
2022-08-19T03:49:15.404Z,18.46
2022-08-19T03:51:43.557Z,18.44
2022-08-19T03:54:13.899Z,18.41
2022-08-19T03:56:42.426Z,18.43
2022-08-19T03:59:14.608Z,18.44
2022-08-19T04:01:42.084Z,18.42
2022-08-19T04:04:09.576Z,18.15
2022-08-19T04:06:38.781Z,18.32
2022-08-19T04:09:09.757Z,18.23
2022-08-19T04:11:44.557Z,18.34
2022-08-19T04:14:15.178Z,18.41
2022-08-19T04:16:43.753Z,18.39
2022-08-19T04:19:10.622Z,18.31
2022-08-19T04:21:37.345Z,18.40
2022-08-19T04:24:04.489Z,18.43
2022-08-19T04:26:35.897Z,18.42
2022-08-19T04:29:11.670Z,18.47
2022-08-19T04:31:39.935Z,18.48
2022-08-19T04:34:08.990Z,18.49
2022-08-19T04:36:37.957Z,18.51
2022-08-19T04:39:10.199Z,18.50
2022-08-19T04:41:56.091Z,18.50
2022-08-19T04:44:22.997Z,18.49
2022-08-19T04:46:51.997Z,18.51
2022-08-19T04:49:22.911Z,18.52
2022-08-19T04:51:50.937Z,18.51
2022-08-19T04:54:37.042Z,18.54
2022-08-19T04:57:07.663Z,18.54
2022-08-19T04:59:35.183Z,18.40
2022-08-19T05:02:02.077Z,18.46
2022-08-19T05:04:31.669Z,18.50
2022-08-19T05:07:00.868Z,18.51
2022-08-19T05:09:55.716Z,18.52
2022-08-19T05:12:16.820Z,18.51
2022-08-19T05:14:44.337Z,18.53
2022-08-19T05:17:27.217Z,18.54
2022-08-19T05:20:13.732Z,18.53
2022-08-19T05:22:40.660Z,18.40
2022-08-19T05:25:13.474Z,18.27
2022-08-19T05:27:42.519Z,18.21
2022-08-19T05:30:10.421Z,18.37
2022-08-19T05:32:37.230Z,18.31
2022-08-19T05:35:05.651Z,18.40
2022-08-19T05:37:32.755Z,18.47
2022-08-19T05:39:59.547Z,18.47
2022-08-19T05:42:27.607Z,18.49
2022-08-19T05:44:54.522Z,18.49
2022-08-19T05:47:21.458Z,18.48
2022-08-19T05:49:52.430Z,18.49
2022-08-19T05:52:25.863Z,18.51
2022-08-19T05:54:56.001Z,18.49
2022-08-19T05:57:23.912Z,18.49
2022-08-19T05:59:57.899Z,18.49
2022-08-19T06:02:26.375Z,18.51
2022-08-19T06:04:53.043Z,18.50
2022-08-19T06:07:20.501Z,18.52
2022-08-19T06:10:00.103Z,18.55
2022-08-19T06:12:36.028Z,18.55
2022-08-19T06:15:12.579Z,18.56
2022-08-19T06:17:39.895Z,18.56
2022-08-19T06:20:12.999Z,18.57
2022-08-19T06:22:45.479Z,18.57
2022-08-19T06:25:14.822Z,18.56
2022-08-19T06:28:11.384Z,18.58
2022-08-19T06:30:29.352Z,18.58
2022-08-19T06:32:55.995Z,18.58
2022-08-19T06:35:22.822Z,18.48
2022-08-19T06:37:49.503Z,18.56
2022-08-19T06:40:16.302Z,18.52
2022-08-19T06:42:54.501Z,18.58
2022-08-19T06:45:24.955Z,18.56
2022-08-19T06:47:55.259Z,18.55
2022-08-19T06:50:22.990Z,18.59
2022-08-19T06:52:53.135Z,18.49
2022-08-19T06:55:20.085Z,18.57
2022-08-19T06:57:47.589Z,18.60
2022-08-19T07:00:17.419Z,18.63
2022-08-19T07:02:49.607Z,18.51
2022-08-19T07:05:22.539Z,18.52
2022-08-19T07:07:49.194Z,18.57
2022-08-19T07:10:18.059Z,18.39
2022-08-19T07:12:45.446Z,18.51
2022-08-19T07:15:13.008Z,18.35
2022-08-19T07:17:41.870Z,18.41
2022-08-19T07:20:10.058Z,18.43
2022-08-19T07:22:40.735Z,18.54
2022-08-19T07:25:09.633Z,18.53
2022-08-19T07:27:36.538Z,18.37
2022-08-19T07:30:06.032Z,18.48
2022-08-19T07:32:32.802Z,18.56
2022-08-19T07:35:01.782Z,18.62
2022-08-19T07:37:33.040Z,18.54
2022-08-19T07:40:01.393Z,18.63
2022-08-19T07:42:30.711Z,18.65
2022-08-19T07:44:58.837Z,18.65
2022-08-19T07:47:49.559Z,18.69
2022-08-19T07:50:12.653Z,18.69
2022-08-19T07:52:40.659Z,18.68
2022-08-19T07:55:40.310Z,18.72
2022-08-19T07:57:56.870Z,18.74
2022-08-19T08:00:24.382Z,18.75
2022-08-19T08:02:52.209Z,18.75
2022-08-19T08:05:43.428Z,18.80
2022-08-19T08:08:44.293Z,18.73
2022-08-19T08:11:16.360Z,18.67
2022-08-19T08:13:44.632Z,18.71
2022-08-19T08:16:13.882Z,18.76
2022-08-19T08:18:43.254Z,18.77
2022-08-19T08:21:19.881Z,18.67
2022-08-19T08:23:46.536Z,18.75
2022-08-19T08:26:16.010Z,18.67
2022-08-19T08:28:43.028Z,18.74
2022-08-19T08:31:15.550Z,18.77
2022-08-19T08:33:43.353Z,18.79
2022-08-19T08:36:10.465Z,18.80
2022-08-19T08:38:41.268Z,18.69
2022-08-19T08:41:42.080Z,18.62
2022-08-19T08:44:19.981Z,18.76
2022-08-19T08:46:54.759Z,18.73
2022-08-19T08:49:25.163Z,18.75
2022-08-19T08:52:00.163Z,18.77
2022-08-19T08:54:34.880Z,18.71
2022-08-19T08:57:05.360Z,18.73
2022-08-19T08:59:38.014Z,18.80
2022-08-19T09:02:04.696Z,18.83
2022-08-19T09:04:31.432Z,18.84
2022-08-19T09:07:34.777Z,18.87
2022-08-19T09:10:29.219Z,18.87
2022-08-19T09:13:26.745Z,18.89
2022-08-19T09:15:58.410Z,18.91
2022-08-19T09:18:25.417Z,18.93
2022-08-19T09:20:57.187Z,18.87
2022-08-19T09:23:26.621Z,18.87
2022-08-19T09:25:53.988Z,18.89
2022-08-19T09:28:22.364Z,18.91
2022-08-19T09:30:49.610Z,18.82
2022-08-19T09:33:19.523Z,18.87
2022-08-19T09:35:50.176Z,18.65
2022-08-19T09:38:20.611Z,18.80
2022-08-19T09:40:47.744Z,18.84
2022-08-19T09:43:14.388Z,18.84
2022-08-19T09:45:41.133Z,18.86
2022-08-19T09:48:09.576Z,18.69
2022-08-19T09:50:51.413Z,18.82
2022-08-19T09:53:19.639Z,18.86
2022-08-19T09:55:46.297Z,18.85
2022-08-19T09:58:13.125Z,18.90
2022-08-19T10:00:40.229Z,18.94
2022-08-19T10:03:07.103Z,18.92
2022-08-19T10:05:55.188Z,18.94
2022-08-19T10:08:27.190Z,18.92
2022-08-19T10:10:54.624Z,18.95
2022-08-19T10:13:25.931Z,18.97
2022-08-19T10:15:56.890Z,18.97
2022-08-19T10:18:25.822Z,18.99
2022-08-19T10:20:54.588Z,19.00
2022-08-19T10:23:22.394Z,19.01
2022-08-19T10:25:50.652Z,19.02
2022-08-19T10:28:19.437Z,19.00
2022-08-19T10:30:48.566Z,19.01
2022-08-19T10:33:16.214Z,19.03
2022-08-19T10:36:10.603Z,18.95
2022-08-19T10:38:38.478Z,18.87
2022-08-19T10:41:25.783Z,18.86
2022-08-19T10:43:58.657Z,18.88
2022-08-19T10:46:33.753Z,18.89
2022-08-19T10:49:02.635Z,18.91
2022-08-19T10:51:49.901Z,18.78
2022-08-19T10:54:18.041Z,18.67
2022-08-19T10:56:58.104Z,18.84
2022-08-19T10:59:31.424Z,18.83
2022-08-19T11:02:03.001Z,18.88
2022-08-19T11:04:29.839Z,18.81
2022-08-19T11:06:57.573Z,18.40
2022-08-19T11:09:33.689Z,18.57
2022-08-19T11:12:02.699Z,18.44
2022-08-19T11:14:34.321Z,18.40
2022-08-19T11:17:02.797Z,18.23
2022-08-19T11:19:29.838Z,18.43
2022-08-19T11:21:57.689Z,18.40
2022-08-19T11:24:28.519Z,18.40
2022-08-19T11:27:01.151Z,18.39
2022-08-19T11:29:28.895Z,18.50
2022-08-19T11:31:56.267Z,18.58
2022-08-19T11:34:26.481Z,18.56
2022-08-19T11:36:55.599Z,18.32
2022-08-19T11:39:23.731Z,18.26
2022-08-19T11:41:50.478Z,18.22
2022-08-19T11:44:17.484Z,18.27
2022-08-19T11:46:47.864Z,18.44
2022-08-19T11:49:16.841Z,18.33
2022-08-19T11:51:44.278Z,18.56
2022-08-19T11:54:11.720Z,18.49
2022-08-19T11:56:38.906Z,18.64
2022-08-19T11:59:05.911Z,18.60
2022-08-19T12:01:32.647Z,18.39
2022-08-19T12:04:00.546Z,18.58
2022-08-19T12:06:30.148Z,18.64
2022-08-19T12:08:58.044Z,18.61
2022-08-19T12:11:26.117Z,18.56
2022-08-19T12:13:53.361Z,18.78
2022-08-19T12:16:24.659Z,18.68
2022-08-19T12:18:52.072Z,18.82
2022-08-19T12:21:23.390Z,18.93
2022-08-19T12:23:55.506Z,18.82
2022-08-19T12:26:22.959Z,18.82
2022-08-19T12:28:49.614Z,18.60
2022-08-19T12:31:16.277Z,18.60
2022-08-19T12:33:43.494Z,18.55
2022-08-19T12:36:12.066Z,18.71
2022-08-19T12:38:39.608Z,18.89
2022-08-19T12:41:07.942Z,18.98
2022-08-19T12:43:44.755Z,18.96
2022-08-19T12:46:12.192Z,19.08
2022-08-19T12:48:42.937Z,18.91
2022-08-19T12:51:11.881Z,18.92
2022-08-19T12:53:39.390Z,19.02
2022-08-19T12:56:09.968Z,18.79
2022-08-19T12:58:39.423Z,18.42
2022-08-19T13:01:15.602Z,18.54
2022-08-19T13:03:46.387Z,18.90
2022-08-19T13:06:13.603Z,19.14
2022-08-19T13:08:40.757Z,18.86
2022-08-19T13:11:12.829Z,18.72
2022-08-19T13:13:43.630Z,18.91
2022-08-19T13:16:12.750Z,18.96
2022-08-19T13:18:40.690Z,19.12
2022-08-19T13:21:09.426Z,19.17
2022-08-19T13:23:37.089Z,18.99
2022-08-19T13:26:06.843Z,19.23
2022-08-19T13:28:54.172Z,19.07
2022-08-19T13:31:42.204Z,19.03
2022-08-19T13:34:09.757Z,18.91
2022-08-19T13:36:37.180Z,18.92
2022-08-19T13:39:04.932Z,19.28
2022-08-19T13:41:31.946Z,19.29
2022-08-19T13:43:58.891Z,19.34
2022-08-19T13:46:25.656Z,19.50
2022-08-19T13:48:52.319Z,19.42
2022-08-19T13:51:18.984Z,19.46
2022-08-19T13:53:47.997Z,19.30
2022-08-19T13:56:17.658Z,19.40
2022-08-19T13:58:44.581Z,19.65
2022-08-19T14:01:12.163Z,19.58
2022-08-19T14:03:39.529Z,19.48
2022-08-19T14:06:06.386Z,19.63
2022-08-19T14:08:33.684Z,19.38
2022-08-19T14:11:01.626Z,19.51
2022-08-19T14:13:34.878Z,19.68
2022-08-19T14:16:01.675Z,19.62
2022-08-19T14:18:28.680Z,19.32
2022-08-19T14:20:57.813Z,19.60
2022-08-19T14:23:25.953Z,19.41
2022-08-19T14:25:52.847Z,19.54
2022-08-19T14:28:19.779Z,19.23
2022-08-19T14:30:46.682Z,19.45
2022-08-19T14:33:14.664Z,19.49
2022-08-19T14:35:46.077Z,19.45
2022-08-19T14:38:17.764Z,19.41
2022-08-19T14:40:49.970Z,19.49
2022-08-19T14:43:18.671Z,19.37
2022-08-19T14:45:46.103Z,19.63
2022-08-19T14:48:19.469Z,19.36
2022-08-19T14:50:46.914Z,19.37
2022-08-19T14:53:13.677Z,19.19
2022-08-19T14:55:46.403Z,19.37
2022-08-19T14:58:29.370Z,19.55
2022-08-19T15:00:57.211Z,19.46
2022-08-19T15:03:23.818Z,19.32
2022-08-19T15:05:50.449Z,18.95
2022-08-19T15:08:17.473Z,19.08
2022-08-19T15:10:44.147Z,19.47
2022-08-19T15:13:10.988Z,19.28
2022-08-19T15:15:38.697Z,19.20
2022-08-19T15:18:05.435Z,19.32
2022-08-19T15:20:32.375Z,19.27
2022-08-19T15:23:02.148Z,19.36
2022-08-19T15:25:29.427Z,19.48
2022-08-19T15:27:56.356Z,19.37
2022-08-19T15:30:26.351Z,19.47
2022-08-19T15:32:56.059Z,19.10
2022-08-19T15:35:23.915Z,19.48
2022-08-19T15:37:55.153Z,19.63
2022-08-19T15:40:22.865Z,19.64
2022-08-19T15:42:50.032Z,19.68
2022-08-19T15:45:19.006Z,19.66
2022-08-19T15:47:45.949Z,19.55
2022-08-19T15:50:18.710Z,19.65
2022-08-19T15:52:50.854Z,19.67
2022-08-19T15:55:32.282Z,19.40
2022-08-19T15:58:29.858Z,19.56
2022-08-19T16:01:22.042Z,19.62
2022-08-19T16:04:11.322Z,19.27
2022-08-19T16:06:47.974Z,19.35
2022-08-19T16:09:16.210Z,19.50
2022-08-19T16:11:45.966Z,19.31
2022-08-19T16:14:14.896Z,19.33
2022-08-19T16:16:41.605Z,19.32
2022-08-19T16:19:11.820Z,19.42
2022-08-19T16:21:41.945Z,19.54
2022-08-19T16:24:10.944Z,19.51
2022-08-19T16:26:37.883Z,19.50
2022-08-19T16:29:09.096Z,19.49
2022-08-19T16:31:39.795Z,19.42
2022-08-19T16:34:07.073Z,19.48
2022-08-19T16:36:33.869Z,19.41
2022-08-19T16:39:01.241Z,19.46
2022-08-19T16:41:28.860Z,19.45
2022-08-19T16:43:55.498Z,19.40
2022-08-19T16:46:23.263Z,19.40
2022-08-19T16:48:53.995Z,18.98
2022-08-19T16:51:22.783Z,18.98
2022-08-19T16:53:52.059Z,19.08
2022-08-19T16:56:19.663Z,18.69
2022-08-19T16:58:46.329Z,18.44
2022-08-19T17:01:13.812Z,18.52
2022-08-19T17:03:40.504Z,18.54
2022-08-19T17:09:55.128Z,18.58
2022-08-19T17:12:22.236Z,18.62
2022-08-19T17:14:57.790Z,18.75
2022-08-19T17:17:28.725Z,18.52
2022-08-19T17:19:55.847Z,18.56
2022-08-19T17:22:22.465Z,18.12
2022-08-19T17:24:49.357Z,18.13
2022-08-19T17:27:15.946Z,17.95
2022-08-19T17:29:47.160Z,17.83
2022-08-19T17:32:15.348Z,17.96
2022-08-19T17:34:42.133Z,17.84
2022-08-19T17:37:09.208Z,17.87
2022-08-19T17:39:37.183Z,17.77
2022-08-19T17:42:06.693Z,18.13
2022-08-19T17:44:36.692Z,17.90
2022-08-19T17:47:04.446Z,18.07
2022-08-19T17:49:32.701Z,18.13
2022-08-19T17:52:00.734Z,17.81
2022-08-19T17:54:33.228Z,17.79
2022-08-19T17:57:01.474Z,18.09
2022-08-19T17:59:30.095Z,18.12
2022-08-19T18:01:57.824Z,18.22
2022-08-19T18:04:26.223Z,17.71
2022-08-19T18:06:55.006Z,17.91
2022-08-19T18:09:41.630Z,17.76
2022-08-19T18:12:11.489Z,17.77
2022-08-19T18:14:39.956Z,18.00
2022-08-19T18:17:10.145Z,18.09
2022-08-19T18:19:41.247Z,17.91
2022-08-19T18:22:29.191Z,17.67
2022-08-19T18:24:57.518Z,17.82
2022-08-19T18:27:25.935Z,17.84
2022-08-19T18:29:59.579Z,17.56
2022-08-19T18:32:33.342Z,17.51
2022-08-19T18:35:02.201Z,17.33
2022-08-19T18:37:28.812Z,17.64
2022-08-19T18:40:14.379Z,17.58
2022-08-19T18:43:03.530Z,17.52
2022-08-19T18:45:49.875Z,17.41
2022-08-19T18:48:48.958Z,17.58
2022-08-19T18:51:17.331Z,17.78
2022-08-19T18:53:46.148Z,17.61
2022-08-19T18:56:15.609Z,17.76
2022-08-19T18:58:43.539Z,17.78
2022-08-19T19:01:16.519Z,17.87
2022-08-19T19:03:49.605Z,17.90
2022-08-19T19:06:23.027Z,17.89
2022-08-19T19:08:51.606Z,17.91
2022-08-19T19:11:24.133Z,17.92
2022-08-19T19:13:51.757Z,17.91
2022-08-19T19:16:22.449Z,17.91
2022-08-19T19:18:52.911Z,17.85
2022-08-19T19:21:24.603Z,17.90
2022-08-19T19:23:54.433Z,17.92
2022-08-19T19:26:21.841Z,17.93
2022-08-19T19:28:49.172Z,17.93
2022-08-19T19:31:23.024Z,17.95
2022-08-19T19:33:50.091Z,17.95
2022-08-19T19:36:16.905Z,17.93
2022-08-19T19:38:48.219Z,17.93
2022-08-19T19:41:17.401Z,17.77
2022-08-19T19:43:44.546Z,17.86
2022-08-19T19:46:11.273Z,17.84
2022-08-19T19:48:38.315Z,17.77
2022-08-19T19:51:05.739Z,17.83
2022-08-19T19:53:33.881Z,17.84
2022-08-19T19:56:02.219Z,17.79
2022-08-19T19:58:30.899Z,17.73
2022-08-19T20:01:02.410Z,17.53
2022-08-19T20:03:36.350Z,17.74
2022-08-19T20:06:03.242Z,17.50
2022-08-19T20:08:48.114Z,17.67
2022-08-19T20:11:27.398Z,16.98
2022-08-19T20:13:54.212Z,17.29
2022-08-19T20:16:25.551Z,17.56
2022-08-19T20:18:52.710Z,17.61
2022-08-19T20:21:23.609Z,17.70
2022-08-19T20:24:09.000Z,17.69
2022-08-19T20:26:36.366Z,17.51
2022-08-19T20:29:11.321Z,17.64
2022-08-19T20:31:59.155Z,17.60
2022-08-19T20:34:26.779Z,17.44
2022-08-19T20:36:53.515Z,17.55
2022-08-19T20:39:20.424Z,17.47
2022-08-19T20:41:49.867Z,17.58
2022-08-19T20:44:16.643Z,17.39
2022-08-19T20:46:43.242Z,17.48
2022-08-19T20:49:27.168Z,17.38
2022-08-19T20:51:55.148Z,17.46
2022-08-19T20:54:21.953Z,17.56
2022-08-19T20:56:48.787Z,17.61
2022-08-19T20:59:15.502Z,17.57
2022-08-19T21:01:42.252Z,17.60
2022-08-19T21:04:08.864Z,17.64
2022-08-19T21:06:35.486Z,17.66
2022-08-19T21:09:02.098Z,17.70
2022-08-19T21:11:29.122Z,17.72
2022-08-19T21:13:55.751Z,17.73
2022-08-19T21:16:22.621Z,17.66
2022-08-19T21:18:49.340Z,17.63
2022-08-19T21:21:16.057Z,17.70
2022-08-19T21:23:44.173Z,17.60
2022-08-19T21:26:11.192Z,17.66
2022-08-19T21:28:37.800Z,17.65
2022-08-19T21:31:06.665Z,17.56
2022-08-19T21:33:33.602Z,17.66
2022-08-19T21:36:00.430Z,17.72
2022-08-19T21:38:27.551Z,17.72
2022-08-19T21:40:55.162Z,17.75
2022-08-19T21:43:22.228Z,17.71
2022-08-19T21:45:51.086Z,17.69
2022-08-19T21:48:18.335Z,17.71
2022-08-19T21:50:46.021Z,17.72
2022-08-19T21:53:17.428Z,17.72
2022-08-19T21:55:52.882Z,17.69
2022-08-19T21:58:28.187Z,17.66
2022-08-19T22:00:57.794Z,17.65
2022-08-19T22:03:25.791Z,17.63
2022-08-19T22:05:52.685Z,17.58
2022-08-19T22:08:19.626Z,17.63
2022-08-19T22:10:46.485Z,17.66
2022-08-19T22:13:13.621Z,17.67
2022-08-19T22:15:41.115Z,17.60
2022-08-19T22:18:07.903Z,17.55
2022-08-19T22:20:34.529Z,17.62
2022-08-19T22:23:04.633Z,17.61
2022-08-19T22:25:39.700Z,17.64
2022-08-19T22:28:10.934Z,17.37
2022-08-19T22:30:41.736Z,17.50
2022-08-19T22:33:12.685Z,17.53
2022-08-19T22:35:41.005Z,17.55
2022-08-19T22:38:08.941Z,17.56
2022-08-19T22:40:39.664Z,17.42
2022-08-19T22:43:15.021Z,17.46
2022-08-19T22:45:42.696Z,17.31
2022-08-19T22:48:11.443Z,17.38
2022-08-19T22:50:41.034Z,17.44
2022-08-19T22:53:09.050Z,17.35
2022-08-19T22:55:37.686Z,17.36
2022-08-19T22:58:05.475Z,17.24
2022-08-19T23:00:32.950Z,17.16
2022-08-19T23:02:59.830Z,17.21
2022-08-19T23:05:28.206Z,17.12
2022-08-19T23:07:57.500Z,17.12
2022-08-19T23:10:27.378Z,17.29
2022-08-19T23:12:57.940Z,17.05
2022-08-19T23:15:27.895Z,17.26
2022-08-19T23:18:04.279Z,17.23
2022-08-19T23:20:35.634Z,17.20
2022-08-19T23:23:06.559Z,17.28
2022-08-19T23:25:36.029Z,17.16
2022-08-19T23:28:22.527Z,17.17
2022-08-19T23:30:51.877Z,17.13
2022-08-19T23:33:46.772Z,17.23
2022-08-19T23:36:19.330Z,17.03
2022-08-19T23:38:48.428Z,16.87
2022-08-19T23:41:17.095Z,17.02
2022-08-19T23:43:44.975Z,17.20
2022-08-19T23:46:14.064Z,17.22
2022-08-19T23:48:54.132Z,17.14
2022-08-19T23:51:20.969Z,17.20
2022-08-19T23:53:47.610Z,17.25
2022-08-19T23:56:14.297Z,17.21
2022-08-19T23:58:41.124Z,17.11
